sensor_id;sensor_type;location;lat;lon;timestamp;P1;durP1;ratioP1;P2;durP2;ratioP2
5981;SDS011;3018;48.730;9.336;2023-02-13T00:02:12;21.90;;;14.20;;
5981;SDS011;3018;48.730;9.336;2023-02-13T00:04:39;21.80;;;14.32;;
5981;SDS011;3018;48.730;9.336;2023-02-13T00:07:06;21.08;;;14.75;;
5981;SDS011;3018;48.730;9.336;2023-02-13T00:09:33;24.48;;;14.77;;
5981;SDS011;3018;48.730;9.336;2023-02-13T00:11:59;21.80;;;14.05;;
5981;SDS011;3018;48.730;9.336;2023-02-13T00:14:25;20.25;;;14.57;;
5981;SDS011;3018;48.730;9.336;2023-02-13T00:16:53;22.08;;;14.23;;
5981;SDS011;3018;48.730;9.336;2023-02-13T00:19:19;24.40;;;14.15;;
5981;SDS011;3018;48.730;9.336;2023-02-13T00:21:45;22.25;;;14.38;;
5981;SDS011;3018;48.730;9.336;2023-02-13T00:24:11;20.38;;;13.48;;
5981;SDS011;3018;48.730;9.336;2023-02-13T00:26:39;21.55;;;13.02;;
5981;SDS011;3018;48.730;9.336;2023-02-13T00:29:05;21.15;;;14.02;;
5981;SDS011;3018;48.730;9.336;2023-02-13T00:31:32;20.92;;;13.13;;
5981;SDS011;3018;48.730;9.336;2023-02-13T00:33:59;22.75;;;14.13;;
5981;SDS011;3018;48.730;9.336;2023-02-13T00:36:25;23.63;;;14.05;;
5981;SDS011;3018;48.730;9.336;2023-02-13T00:38:52;23.13;;;13.57;;
5981;SDS011;3018;48.730;9.336;2023-02-13T00:41:18;22.52;;;14.00;;
5981;SDS011;3018;48.730;9.336;2023-02-13T00:43:45;20.52;;;13.15;;
5981;SDS011;3018;48.730;9.336;2023-02-13T00:46:12;21.48;;;13.15;;
5981;SDS011;3018;48.730;9.336;2023-02-13T00:48:38;20.38;;;13.63;;
5981;SDS011;3018;48.730;9.336;2023-02-13T00:51:06;20.60;;;13.13;;
5981;SDS011;3018;48.730;9.336;2023-02-13T00:53:33;20.77;;;13.38;;
5981;SDS011;3018;48.730;9.336;2023-02-13T00:55:59;21.40;;;14.07;;
5981;SDS011;3018;48.730;9.336;2023-02-13T00:58:25;23.05;;;14.32;;
5981;SDS011;3018;48.730;9.336;2023-02-13T01:00:52;23.02;;;13.63;;
5981;SDS011;3018;48.730;9.336;2023-02-13T01:03:19;22.98;;;13.32;;
5981;SDS011;3018;48.730;9.336;2023-02-13T01:05:45;21.15;;;14.18;;
5981;SDS011;3018;48.730;9.336;2023-02-13T01:08:13;22.67;;;14.38;;
5981;SDS011;3018;48.730;9.336;2023-02-13T01:10:40;23.17;;;14.25;;
5981;SDS011;3018;48.730;9.336;2023-02-13T01:13:07;22.40;;;14.70;;
5981;SDS011;3018;48.730;9.336;2023-02-13T01:15:33;21.25;;;13.57;;
5981;SDS011;3018;48.730;9.336;2023-02-13T01:18:00;23.27;;;14.35;;
5981;SDS011;3018;48.730;9.336;2023-02-13T01:20:26;23.35;;;14.50;;
5981;SDS011;3018;48.730;9.336;2023-02-13T01:22:53;25.55;;;14.65;;
5981;SDS011;3018;48.730;9.336;2023-02-13T01:25:21;24.15;;;14.77;;
5981;SDS011;3018;48.730;9.336;2023-02-13T01:27:47;21.50;;;14.02;;
5981;SDS011;3018;48.730;9.336;2023-02-13T01:30:14;21.45;;;13.82;;
5981;SDS011;3018;48.730;9.336;2023-02-13T01:32:42;23.23;;;14.95;;
5981;SDS011;3018;48.730;9.336;2023-02-13T01:35:09;23.73;;;14.43;;
5981;SDS011;3018;48.730;9.336;2023-02-13T01:37:35;21.00;;;14.25;;
5981;SDS011;3018;48.730;9.336;2023-02-13T01:40:03;24.15;;;14.38;;
5981;SDS011;3018;48.730;9.336;2023-02-13T01:42:31;22.05;;;13.38;;
5981;SDS011;3018;48.730;9.336;2023-02-13T01:44:58;20.92;;;14.20;;
5981;SDS011;3018;48.730;9.336;2023-02-13T01:47:26;26.52;;;15.10;;
5981;SDS011;3018;48.730;9.336;2023-02-13T01:50:00;22.60;;;13.45;;
5981;SDS011;3018;48.730;9.336;2023-02-13T01:52:28;23.13;;;14.52;;
5981;SDS011;3018;48.730;9.336;2023-02-13T01:54:55;26.08;;;15.10;;
5981;SDS011;3018;48.730;9.336;2023-02-13T01:57:21;22.35;;;14.02;;
5981;SDS011;3018;48.730;9.336;2023-02-13T01:59:52;25.65;;;14.55;;
5981;SDS011;3018;48.730;9.336;2023-02-13T02:02:20;24.33;;;14.07;;
5981;SDS011;3018;48.730;9.336;2023-02-13T02:04:47;22.55;;;14.30;;
5981;SDS011;3018;48.730;9.336;2023-02-13T02:07:17;22.42;;;13.95;;
5981;SDS011;3018;48.730;9.336;2023-02-13T02:09:45;25.52;;;14.75;;
5981;SDS011;3018;48.730;9.336;2023-02-13T02:12:12;22.90;;;14.38;;
5981;SDS011;3018;48.730;9.336;2023-02-13T02:14:39;27.05;;;15.65;;
5981;SDS011;3018;48.730;9.336;2023-02-13T02:17:07;25.40;;;14.85;;
5981;SDS011;3018;48.730;9.336;2023-02-13T02:19:35;22.90;;;13.68;;
5981;SDS011;3018;48.730;9.336;2023-02-13T02:22:09;22.65;;;14.93;;
5981;SDS011;3018;48.730;9.336;2023-02-13T02:24:56;25.38;;;14.13;;
5981;SDS011;3018;48.730;9.336;2023-02-13T02:30:25;22.80;;;13.98;;
5981;SDS011;3018;48.730;9.336;2023-02-13T02:32:57;24.27;;;13.95;;
5981;SDS011;3018;48.730;9.336;2023-02-13T02:35:27;23.73;;;13.23;;
5981;SDS011;3018;48.730;9.336;2023-02-13T02:38:00;21.75;;;14.13;;
5981;SDS011;3018;48.730;9.336;2023-02-13T02:40:28;23.10;;;13.43;;
5981;SDS011;3018;48.730;9.336;2023-02-13T02:43:00;22.70;;;14.27;;
5981;SDS011;3018;48.730;9.336;2023-02-13T02:45:31;22.20;;;13.80;;
5981;SDS011;3018;48.730;9.336;2023-02-13T02:48:04;24.80;;;13.90;;
5981;SDS011;3018;48.730;9.336;2023-02-13T02:50:50;23.02;;;13.70;;
5981;SDS011;3018;48.730;9.336;2023-02-13T02:53:22;22.60;;;13.63;;
5981;SDS011;3018;48.730;9.336;2023-02-13T02:55:52;23.50;;;14.38;;
5981;SDS011;3018;48.730;9.336;2023-02-13T02:58:20;22.95;;;13.80;;
5981;SDS011;3018;48.730;9.336;2023-02-13T03:01:05;24.25;;;13.38;;
5981;SDS011;3018;48.730;9.336;2023-02-13T03:03:52;21.55;;;13.77;;
5981;SDS011;3018;48.730;9.336;2023-02-13T03:06:50;24.15;;;14.48;;
5981;SDS011;3018;48.730;9.336;2023-02-13T03:09:18;21.58;;;13.98;;
5981;SDS011;3018;48.730;9.336;2023-02-13T03:12:03;27.05;;;14.90;;
5981;SDS011;3018;48.730;9.336;2023-02-13T03:14:47;22.13;;;14.40;;
5981;SDS011;3018;48.730;9.336;2023-02-13T03:17:15;23.85;;;14.27;;
5981;SDS011;3018;48.730;9.336;2023-02-13T03:20:05;23.17;;;13.60;;
5981;SDS011;3018;48.730;9.336;2023-02-13T03:22:55;22.70;;;14.05;;
5981;SDS011;3018;48.730;9.336;2023-02-13T03:25:26;23.75;;;13.32;;
5981;SDS011;3018;48.730;9.336;2023-02-13T03:28:00;19.33;;;12.77;;
5981;SDS011;3018;48.730;9.336;2023-02-13T03:30:50;25.10;;;13.90;;
5981;SDS011;3018;48.730;9.336;2023-02-13T03:33:26;22.08;;;13.15;;
5981;SDS011;3018;48.730;9.336;2023-02-13T03:35:59;21.48;;;13.25;;
5981;SDS011;3018;48.730;9.336;2023-02-13T03:38:46;25.40;;;13.35;;
5981;SDS011;3018;48.730;9.336;2023-02-13T03:41:17;23.55;;;13.80;;
5981;SDS011;3018;48.730;9.336;2023-02-13T03:43:49;24.08;;;14.07;;
5981;SDS011;3018;48.730;9.336;2023-02-13T03:46:19;23.60;;;14.75;;
5981;SDS011;3018;48.730;9.336;2023-02-13T03:48:45;19.95;;;13.43;;
5981;SDS011;3018;48.730;9.336;2023-02-13T03:51:32;21.67;;;14.18;;
5981;SDS011;3018;48.730;9.336;2023-02-13T03:54:00;25.60;;;14.02;;
5981;SDS011;3018;48.730;9.336;2023-02-13T03:56:29;23.88;;;14.32;;
5981;SDS011;3018;48.730;9.336;2023-02-13T03:59:17;20.27;;;13.02;;
5981;SDS011;3018;48.730;9.336;2023-02-13T04:01:46;22.92;;;13.95;;
5981;SDS011;3018;48.730;9.336;2023-02-13T04:04:16;27.33;;;15.43;;
5981;SDS011;3018;48.730;9.336;2023-02-13T04:06:48;25.80;;;15.38;;
5981;SDS011;3018;48.730;9.336;2023-02-13T04:09:15;23.50;;;13.93;;
5981;SDS011;3018;48.730;9.336;2023-02-13T04:11:42;22.80;;;14.07;;
5981;SDS011;3018;48.730;9.336;2023-02-13T04:14:14;23.08;;;14.38;;
5981;SDS011;3018;48.730;9.336;2023-02-13T04:16:41;21.25;;;12.80;;
5981;SDS011;3018;48.730;9.336;2023-02-13T04:19:09;18.55;;;12.90;;
5981;SDS011;3018;48.730;9.336;2023-02-13T04:21:36;18.63;;;12.65;;
5981;SDS011;3018;48.730;9.336;2023-02-13T04:24:06;20.33;;;12.85;;
5981;SDS011;3018;48.730;9.336;2023-02-13T04:26:33;21.80;;;13.70;;
5981;SDS011;3018;48.730;9.336;2023-02-13T04:29:00;21.55;;;15.23;;
5981;SDS011;3018;48.730;9.336;2023-02-13T04:31:26;21.02;;;14.80;;
5981;SDS011;3018;48.730;9.336;2023-02-13T04:33:52;25.95;;;16.58;;
5981;SDS011;3018;48.730;9.336;2023-02-13T04:36:19;26.77;;;18.08;;
5981;SDS011;3018;48.730;9.336;2023-02-13T04:38:45;28.42;;;19.13;;
5981;SDS011;3018;48.730;9.336;2023-02-13T04:41:12;25.75;;;15.20;;
5981;SDS011;3018;48.730;9.336;2023-02-13T04:43:39;25.00;;;14.20;;
5981;SDS011;3018;48.730;9.336;2023-02-13T04:46:05;22.25;;;13.55;;
5981;SDS011;3018;48.730;9.336;2023-02-13T04:48:31;20.08;;;13.07;;
5981;SDS011;3018;48.730;9.336;2023-02-13T04:50:57;21.30;;;13.02;;
5981;SDS011;3018;48.730;9.336;2023-02-13T04:53:24;18.67;;;12.63;;
5981;SDS011;3018;48.730;9.336;2023-02-13T04:55:50;20.33;;;12.98;;
5981;SDS011;3018;48.730;9.336;2023-02-13T04:58:17;18.83;;;13.07;;
5981;SDS011;3018;48.730;9.336;2023-02-13T05:00:44;20.45;;;13.43;;
5981;SDS011;3018;48.730;9.336;2023-02-13T05:03:11;19.42;;;12.10;;
5981;SDS011;3018;48.730;9.336;2023-02-13T05:05:38;22.38;;;13.85;;
5981;SDS011;3018;48.730;9.336;2023-02-13T05:08:04;22.00;;;13.63;;
5981;SDS011;3018;48.730;9.336;2023-02-13T05:10:31;23.20;;;12.93;;
5981;SDS011;3018;48.730;9.336;2023-02-13T05:12:57;19.08;;;13.27;;
5981;SDS011;3018;48.730;9.336;2023-02-13T05:15:25;21.77;;;13.15;;
5981;SDS011;3018;48.730;9.336;2023-02-13T05:17:51;24.42;;;13.77;;
5981;SDS011;3018;48.730;9.336;2023-02-13T05:20:18;21.25;;;13.93;;
5981;SDS011;3018;48.730;9.336;2023-02-13T05:22:44;19.58;;;12.27;;
5981;SDS011;3018;48.730;9.336;2023-02-13T05:25:28;20.50;;;13.10;;
5981;SDS011;3018;48.730;9.336;2023-02-13T05:27:54;22.02;;;13.52;;
5981;SDS011;3018;48.730;9.336;2023-02-13T05:30:20;22.40;;;13.70;;
5981;SDS011;3018;48.730;9.336;2023-02-13T05:32:47;21.08;;;13.10;;
5981;SDS011;3018;48.730;9.336;2023-02-13T05:35:15;21.60;;;13.32;;
5981;SDS011;3018;48.730;9.336;2023-02-13T05:37:41;24.02;;;13.73;;
5981;SDS011;3018;48.730;9.336;2023-02-13T05:40:08;24.38;;;14.10;;
5981;SDS011;3018;48.730;9.336;2023-02-13T05:42:34;20.13;;;13.32;;
5981;SDS011;3018;48.730;9.336;2023-02-13T05:45:01;21.92;;;13.18;;
5981;SDS011;3018;48.730;9.336;2023-02-13T05:47:27;21.63;;;13.40;;
5981;SDS011;3018;48.730;9.336;2023-02-13T05:49:55;21.70;;;13.52;;
5981;SDS011;3018;48.730;9.336;2023-02-13T05:52:21;21.23;;;12.90;;
5981;SDS011;3018;48.730;9.336;2023-02-13T05:54:47;21.92;;;12.75;;
5981;SDS011;3018;48.730;9.336;2023-02-13T05:57:13;20.67;;;12.77;;
5981;SDS011;3018;48.730;9.336;2023-02-13T05:59:40;20.73;;;12.93;;
5981;SDS011;3018;48.730;9.336;2023-02-13T06:02:06;20.83;;;13.35;;
5981;SDS011;3018;48.730;9.336;2023-02-13T06:04:32;19.65;;;12.63;;
5981;SDS011;3018;48.730;9.336;2023-02-13T06:07:00;21.42;;;13.70;;
5981;SDS011;3018;48.730;9.336;2023-02-13T06:09:26;20.83;;;14.27;;
5981;SDS011;3018;48.730;9.336;2023-02-13T06:11:53;19.08;;;12.30;;
5981;SDS011;3018;48.730;9.336;2023-02-13T06:14:20;19.90;;;13.48;;
5981;SDS011;3018;48.730;9.336;2023-02-13T06:16:46;23.67;;;13.27;;
5981;SDS011;3018;48.730;9.336;2023-02-13T06:19:12;26.25;;;14.30;;
5981;SDS011;3018;48.730;9.336;2023-02-13T06:21:38;21.23;;;14.73;;
5981;SDS011;3018;48.730;9.336;2023-02-13T06:24:06;24.52;;;14.98;;
5981;SDS011;3018;48.730;9.336;2023-02-13T06:26:33;26.38;;;15.95;;
5981;SDS011;3018;48.730;9.336;2023-02-13T06:28:59;24.33;;;15.73;;
5981;SDS011;3018;48.730;9.336;2023-02-13T06:31:26;27.65;;;16.73;;
5981;SDS011;3018;48.730;9.336;2023-02-13T06:33:52;30.52;;;17.55;;
5981;SDS011;3018;48.730;9.336;2023-02-13T06:36:18;26.20;;;16.58;;
5981;SDS011;3018;48.730;9.336;2023-02-13T06:38:45;30.13;;;16.33;;
5981;SDS011;3018;48.730;9.336;2023-02-13T06:41:12;23.13;;;14.40;;
5981;SDS011;3018;48.730;9.336;2023-02-13T06:43:38;19.63;;;13.95;;
5981;SDS011;3018;48.730;9.336;2023-02-13T06:46:05;22.77;;;15.02;;
5981;SDS011;3018;48.730;9.336;2023-02-13T06:48:32;25.33;;;15.52;;
5981;SDS011;3018;48.730;9.336;2023-02-13T06:50:58;26.10;;;15.07;;
5981;SDS011;3018;48.730;9.336;2023-02-13T06:53:25;23.65;;;14.60;;
5981;SDS011;3018;48.730;9.336;2023-02-13T06:55:52;24.35;;;14.80;;
5981;SDS011;3018;48.730;9.336;2023-02-13T06:58:20;24.33;;;15.00;;
5981;SDS011;3018;48.730;9.336;2023-02-13T07:00:47;26.30;;;14.25;;
5981;SDS011;3018;48.730;9.336;2023-02-13T07:03:13;24.67;;;14.23;;
5981;SDS011;3018;48.730;9.336;2023-02-13T07:05:46;21.67;;;14.38;;
5981;SDS011;3018;48.730;9.336;2023-02-13T07:08:15;20.80;;;13.35;;
5981;SDS011;3018;48.730;9.336;2023-02-13T07:10:42;22.85;;;14.85;;
5981;SDS011;3018;48.730;9.336;2023-02-13T07:13:08;25.33;;;14.60;;
5981;SDS011;3018;48.730;9.336;2023-02-13T07:15:36;23.35;;;14.88;;
5981;SDS011;3018;48.730;9.336;2023-02-13T07:18:03;24.25;;;15.00;;
5981;SDS011;3018;48.730;9.336;2023-02-13T07:20:29;24.13;;;14.45;;
5981;SDS011;3018;48.730;9.336;2023-02-13T07:22:56;26.75;;;16.35;;
5981;SDS011;3018;48.730;9.336;2023-02-13T07:25:22;28.67;;;15.20;;
5981;SDS011;3018;48.730;9.336;2023-02-13T07:27:49;22.88;;;15.90;;
5981;SDS011;3018;48.730;9.336;2023-02-13T07:30:15;26.42;;;15.98;;
5981;SDS011;3018;48.730;9.336;2023-02-13T07:32:43;28.42;;;15.38;;
5981;SDS011;3018;48.730;9.336;2023-02-13T07:35:09;25.33;;;15.90;;
5981;SDS011;3018;48.730;9.336;2023-02-13T07:37:35;24.35;;;15.23;;
5981;SDS011;3018;48.730;9.336;2023-02-13T07:40:02;25.95;;;15.48;;
5981;SDS011;3018;48.730;9.336;2023-02-13T07:42:31;22.95;;;15.85;;
5981;SDS011;3018;48.730;9.336;2023-02-13T07:44:57;25.15;;;15.60;;
5981;SDS011;3018;48.730;9.336;2023-02-13T07:47:24;26.20;;;15.95;;
5981;SDS011;3018;48.730;9.336;2023-02-13T07:49:51;24.98;;;15.48;;
5981;SDS011;3018;48.730;9.336;2023-02-13T07:52:18;29.77;;;15.73;;
5981;SDS011;3018;48.730;9.336;2023-02-13T07:54:45;26.08;;;15.40;;
5981;SDS011;3018;48.730;9.336;2023-02-13T07:57:12;24.02;;;15.70;;
5981;SDS011;3018;48.730;9.336;2023-02-13T07:59:38;24.85;;;15.65;;
5981;SDS011;3018;48.730;9.336;2023-02-13T08:02:04;24.60;;;15.35;;
5981;SDS011;3018;48.730;9.336;2023-02-13T08:04:31;24.52;;;15.15;;
5981;SDS011;3018;48.730;9.336;2023-02-13T08:06:58;27.02;;;17.38;;
5981;SDS011;3018;48.730;9.336;2023-02-13T08:09:25;31.63;;;16.63;;
5981;SDS011;3018;48.730;9.336;2023-02-13T08:12:08;36.72;;;18.00;;
5981;SDS011;3018;48.730;9.336;2023-02-13T08:14:35;30.25;;;17.20;;
5981;SDS011;3018;48.730;9.336;2023-02-13T08:17:01;34.17;;;16.17;;
5981;SDS011;3018;48.730;9.336;2023-02-13T08:19:28;25.85;;;16.00;;
5981;SDS011;3018;48.730;9.336;2023-02-13T08:21:54;31.52;;;16.85;;
5981;SDS011;3018;48.730;9.336;2023-02-13T08:24:22;29.15;;;17.42;;
5981;SDS011;3018;48.730;9.336;2023-02-13T08:26:48;32.35;;;17.70;;
5981;SDS011;3018;48.730;9.336;2023-02-13T08:29:14;29.85;;;17.40;;
5981;SDS011;3018;48.730;9.336;2023-02-13T08:31:41;45.85;;;19.52;;
5981;SDS011;3018;48.730;9.336;2023-02-13T08:34:07;36.97;;;19.40;;
5981;SDS011;3018;48.730;9.336;2023-02-13T08:36:34;31.15;;;19.35;;
5981;SDS011;3018;48.730;9.336;2023-02-13T08:39:00;31.13;;;18.88;;
5981;SDS011;3018;48.730;9.336;2023-02-13T08:41:27;34.25;;;19.90;;
5981;SDS011;3018;48.730;9.336;2023-02-13T08:43:54;29.85;;;19.77;;
5981;SDS011;3018;48.730;9.336;2023-02-13T08:46:20;35.95;;;21.50;;
5981;SDS011;3018;48.730;9.336;2023-02-13T08:48:46;34.35;;;20.75;;
5981;SDS011;3018;48.730;9.336;2023-02-13T08:51:13;33.88;;;19.75;;
5981;SDS011;3018;48.730;9.336;2023-02-13T08:53:39;27.33;;;18.67;;
5981;SDS011;3018;48.730;9.336;2023-02-13T08:56:06;28.25;;;18.92;;
5981;SDS011;3018;48.730;9.336;2023-02-13T08:58:33;27.30;;;18.17;;
5981;SDS011;3018;48.730;9.336;2023-02-13T09:01:02;27.80;;;17.25;;
5981;SDS011;3018;48.730;9.336;2023-02-13T09:03:29;26.27;;;17.65;;
5981;SDS011;3018;48.730;9.336;2023-02-13T09:05:57;24.98;;;16.42;;
5981;SDS011;3018;48.730;9.336;2023-02-13T09:08:23;24.33;;;16.52;;
5981;SDS011;3018;48.730;9.336;2023-02-13T09:10:53;23.33;;;14.88;;
5981;SDS011;3018;48.730;9.336;2023-02-13T09:13:20;26.05;;;16.00;;
5981;SDS011;3018;48.730;9.336;2023-02-13T09:15:48;26.70;;;15.55;;
5981;SDS011;3018;48.730;9.336;2023-02-13T09:18:14;26.88;;;16.30;;
5981;SDS011;3018;48.730;9.336;2023-02-13T09:20:40;25.20;;;16.77;;
5981;SDS011;3018;48.730;9.336;2023-02-13T09:23:06;26.85;;;16.40;;
5981;SDS011;3018;48.730;9.336;2023-02-13T09:25:33;23.25;;;16.80;;
5981;SDS011;3018;48.730;9.336;2023-02-13T09:27:59;24.23;;;15.45;;
5981;SDS011;3018;48.730;9.336;2023-02-13T09:30:25;20.90;;;15.48;;
5981;SDS011;3018;48.730;9.336;2023-02-13T09:32:53;20.58;;;15.10;;
5981;SDS011;3018;48.730;9.336;2023-02-13T09:35:20;17.95;;;14.40;;
5981;SDS011;3018;48.730;9.336;2023-02-13T09:37:46;18.98;;;13.65;;
5981;SDS011;3018;48.730;9.336;2023-02-13T09:42:41;16.80;;;13.15;;
5981;SDS011;3018;48.730;9.336;2023-02-13T09:45:09;16.63;;;12.55;;
5981;SDS011;3018;48.730;9.336;2023-02-13T09:47:38;16.92;;;12.68;;
5981;SDS011;3018;48.730;9.336;2023-02-13T09:50:06;15.80;;;12.20;;
5981;SDS011;3018;48.730;9.336;2023-02-13T09:52:36;17.20;;;12.85;;
5981;SDS011;3018;48.730;9.336;2023-02-13T09:55:09;16.00;;;12.73;;
5981;SDS011;3018;48.730;9.336;2023-02-13T09:57:40;16.25;;;12.75;;
5981;SDS011;3018;48.730;9.336;2023-02-13T10:00:09;16.20;;;12.57;;
5981;SDS011;3018;48.730;9.336;2023-02-13T10:02:47;17.13;;;12.73;;
5981;SDS011;3018;48.730;9.336;2023-02-13T10:07:59;16.02;;;12.95;;
5981;SDS011;3018;48.730;9.336;2023-02-13T10:10:29;16.65;;;12.90;;
5981;SDS011;3018;48.730;9.336;2023-02-13T10:13:01;18.45;;;13.30;;
5981;SDS011;3018;48.730;9.336;2023-02-13T10:15:30;20.25;;;14.52;;
5981;SDS011;3018;48.730;9.336;2023-02-13T10:18:00;18.05;;;13.57;;
5981;SDS011;3018;48.730;9.336;2023-02-13T10:20:30;16.10;;;12.52;;
5981;SDS011;3018;48.730;9.336;2023-02-13T10:23:01;16.98;;;13.30;;
5981;SDS011;3018;48.730;9.336;2023-02-13T10:25:35;16.15;;;13.20;;
5981;SDS011;3018;48.730;9.336;2023-02-13T10:28:06;14.98;;;12.23;;
5981;SDS011;3018;48.730;9.336;2023-02-13T10:30:35;14.07;;;11.57;;
5981;SDS011;3018;48.730;9.336;2023-02-13T10:33:09;18.67;;;12.27;;
5981;SDS011;3018;48.730;9.336;2023-02-13T10:35:44;18.75;;;12.52;;
5981;SDS011;3018;48.730;9.336;2023-02-13T10:38:15;15.18;;;12.48;;
5981;SDS011;3018;48.730;9.336;2023-02-13T10:40:46;15.32;;;11.93;;
5981;SDS011;3018;48.730;9.336;2023-02-13T10:43:17;15.88;;;12.23;;
5981;SDS011;3018;48.730;9.336;2023-02-13T10:45:54;16.00;;;11.65;;
5981;SDS011;3018;48.730;9.336;2023-02-13T10:48:26;14.52;;;11.65;;
5981;SDS011;3018;48.730;9.336;2023-02-13T10:50:55;15.27;;;12.25;;
5981;SDS011;3018;48.730;9.336;2023-02-13T10:53:27;15.13;;;11.68;;
5981;SDS011;3018;48.730;9.336;2023-02-13T10:56:13;15.77;;;11.38;;
5981;SDS011;3018;48.730;9.336;2023-02-13T10:58:46;13.10;;;10.35;;
5981;SDS011;3018;48.730;9.336;2023-02-13T11:01:16;16.70;;;10.95;;
5981;SDS011;3018;48.730;9.336;2023-02-13T11:03:44;14.18;;;11.07;;
5981;SDS011;3018;48.730;9.336;2023-02-13T11:06:13;14.32;;;11.20;;
5981;SDS011;3018;48.730;9.336;2023-02-13T11:08:42;12.57;;;9.55;;
5981;SDS011;3018;48.730;9.336;2023-02-13T11:13:54;14.85;;;11.30;;
5981;SDS011;3018;48.730;9.336;2023-02-13T11:16:37;15.77;;;12.15;;
5981;SDS011;3018;48.730;9.336;2023-02-13T11:19:03;14.57;;;10.77;;
5981;SDS011;3018;48.730;9.336;2023-02-13T11:21:31;14.55;;;10.93;;
5981;SDS011;3018;48.730;9.336;2023-02-13T11:24:00;14.93;;;10.93;;
5981;SDS011;3018;48.730;9.336;2023-02-13T11:26:28;15.32;;;11.73;;
5981;SDS011;3018;48.730;9.336;2023-02-13T11:28:57;15.65;;;12.20;;
5981;SDS011;3018;48.730;9.336;2023-02-13T11:31:25;16.65;;;11.85;;
5981;SDS011;3018;48.730;9.336;2023-02-13T11:33:53;15.38;;;11.88;;
5981;SDS011;3018;48.730;9.336;2023-02-13T11:36:23;13.68;;;11.48;;
5981;SDS011;3018;48.730;9.336;2023-02-13T11:39:02;13.18;;;10.57;;
5981;SDS011;3018;48.730;9.336;2023-02-13T11:41:29;14.15;;;11.38;;
5981;SDS011;3018;48.730;9.336;2023-02-13T11:43:56;16.90;;;11.25;;
5981;SDS011;3018;48.730;9.336;2023-02-13T11:46:25;12.48;;;11.18;;
5981;SDS011;3018;48.730;9.336;2023-02-13T11:49:00;13.77;;;11.18;;
5981;SDS011;3018;48.730;9.336;2023-02-13T11:51:34;11.52;;;10.15;;
5981;SDS011;3018;48.730;9.336;2023-02-13T11:54:02;13.57;;;10.68;;
5981;SDS011;3018;48.730;9.336;2023-02-13T11:56:35;11.60;;;10.20;;
5981;SDS011;3018;48.730;9.336;2023-02-13T11:59:12;12.00;;;10.07;;
5981;SDS011;3018;48.730;9.336;2023-02-13T12:01:38;12.18;;;10.23;;
5981;SDS011;3018;48.730;9.336;2023-02-13T12:04:05;12.13;;;10.50;;
5981;SDS011;3018;48.730;9.336;2023-02-13T12:06:32;14.85;;;10.63;;
5981;SDS011;3018;48.730;9.336;2023-02-13T12:09:07;13.68;;;11.02;;
5981;SDS011;3018;48.730;9.336;2023-02-13T12:11:37;14.18;;;11.40;;
5981;SDS011;3018;48.730;9.336;2023-02-13T12:14:04;12.45;;;11.15;;
5981;SDS011;3018;48.730;9.336;2023-02-13T12:16:31;13.52;;;11.65;;
5981;SDS011;3018;48.730;9.336;2023-02-13T12:18:59;13.88;;;10.82;;
5981;SDS011;3018;48.730;9.336;2023-02-13T12:21:30;14.23;;;11.07;;
5981;SDS011;3018;48.730;9.336;2023-02-13T12:24:02;11.43;;;10.20;;
5981;SDS011;3018;48.730;9.336;2023-02-13T12:26:36;13.00;;;10.35;;
5981;SDS011;3018;48.730;9.336;2023-02-13T12:29:09;13.18;;;9.65;;
5981;SDS011;3018;48.730;9.336;2023-02-13T12:31:41;12.93;;;9.82;;
5981;SDS011;3018;48.730;9.336;2023-02-13T12:34:18;13.30;;;9.68;;
5981;SDS011;3018;48.730;9.336;2023-02-13T12:36:50;12.77;;;10.30;;
5981;SDS011;3018;48.730;9.336;2023-02-13T12:39:17;10.98;;;9.50;;
5981;SDS011;3018;48.730;9.336;2023-02-13T12:41:50;11.32;;;10.05;;
5981;SDS011;3018;48.730;9.336;2023-02-13T12:47:11;12.35;;;9.32;;
5981;SDS011;3018;48.730;9.336;2023-02-13T12:52:30;12.48;;;9.23;;
5981;SDS011;3018;48.730;9.336;2023-02-13T12:55:00;10.00;;;8.90;;
5981;SDS011;3018;48.730;9.336;2023-02-13T12:57:35;10.30;;;9.23;;
5981;SDS011;3018;48.730;9.336;2023-02-13T13:00:12;11.68;;;8.57;;
5981;SDS011;3018;48.730;9.336;2023-02-13T13:02:46;10.02;;;8.63;;
5981;SDS011;3018;48.730;9.336;2023-02-13T13:05:17;16.27;;;12.05;;
5981;SDS011;3018;48.730;9.336;2023-02-13T13:07:54;15.65;;;9.45;;
5981;SDS011;3018;48.730;9.336;2023-02-13T13:10:25;13.27;;;8.32;;
5981;SDS011;3018;48.730;9.336;2023-02-13T13:13:00;9.48;;;8.55;;
5981;SDS011;3018;48.730;9.336;2023-02-13T13:15:31;9.50;;;8.20;;
5981;SDS011;3018;48.730;9.336;2023-02-13T13:18:07;9.30;;;8.40;;
5981;SDS011;3018;48.730;9.336;2023-02-13T13:20:52;10.82;;;8.90;;
5981;SDS011;3018;48.730;9.336;2023-02-13T13:23:21;11.82;;;9.10;;
5981;SDS011;3018;48.730;9.336;2023-02-13T13:25:51;10.55;;;9.32;;
5981;SDS011;3018;48.730;9.336;2023-02-13T13:28:23;9.55;;;8.00;;
5981;SDS011;3018;48.730;9.336;2023-02-13T13:30:50;9.65;;;8.60;;
5981;SDS011;3018;48.730;9.336;2023-02-13T13:33:18;9.70;;;8.70;;
5981;SDS011;3018;48.730;9.336;2023-02-13T13:35:46;10.07;;;8.25;;
5981;SDS011;3018;48.730;9.336;2023-02-13T13:38:19;9.90;;;8.90;;
5981;SDS011;3018;48.730;9.336;2023-02-13T13:40:48;13.65;;;9.35;;
5981;SDS011;3018;48.730;9.336;2023-02-13T13:43:18;10.60;;;8.82;;
5981;SDS011;3018;48.730;9.336;2023-02-13T13:45:47;11.73;;;8.98;;
5981;SDS011;3018;48.730;9.336;2023-02-13T13:48:25;9.98;;;8.98;;
5981;SDS011;3018;48.730;9.336;2023-02-13T13:50:54;9.13;;;8.23;;
5981;SDS011;3018;48.730;9.336;2023-02-13T13:53:20;10.07;;;8.98;;
5981;SDS011;3018;48.730;9.336;2023-02-13T13:56:04;9.70;;;8.80;;
5981;SDS011;3018;48.730;9.336;2023-02-13T13:58:34;9.40;;;8.43;;
5981;SDS011;3018;48.730;9.336;2023-02-13T14:01:18;8.52;;;7.63;;
5981;SDS011;3018;48.730;9.336;2023-02-13T14:03:46;10.30;;;8.13;;
5981;SDS011;3018;48.730;9.336;2023-02-13T14:06:13;11.05;;;9.05;;
5981;SDS011;3018;48.730;9.336;2023-02-13T14:11:32;8.93;;;7.70;;
5981;SDS011;3018;48.730;9.336;2023-02-13T14:13:59;9.52;;;7.85;;
5981;SDS011;3018;48.730;9.336;2023-02-13T14:16:40;10.85;;;8.43;;
5981;SDS011;3018;48.730;9.336;2023-02-13T14:19:21;14.38;;;9.60;;
5981;SDS011;3018;48.730;9.336;2023-02-13T14:21:48;10.30;;;8.13;;
5981;SDS011;3018;48.730;9.336;2023-02-13T14:24:15;17.27;;;9.10;;
5981;SDS011;3018;48.730;9.336;2023-02-13T14:26:48;11.70;;;8.95;;
5981;SDS011;3018;48.730;9.336;2023-02-13T14:29:25;10.32;;;8.45;;
5981;SDS011;3018;48.730;9.336;2023-02-13T14:32:00;11.70;;;8.48;;
5981;SDS011;3018;48.730;9.336;2023-02-13T14:34:28;11.45;;;8.98;;
5981;SDS011;3018;48.730;9.336;2023-02-13T14:37:03;11.98;;;8.85;;
5981;SDS011;3018;48.730;9.336;2023-02-13T14:39:31;11.60;;;9.18;;
5981;SDS011;3018;48.730;9.336;2023-02-13T14:41:59;13.93;;;9.18;;
5981;SDS011;3018;48.730;9.336;2023-02-13T14:44:29;9.80;;;8.75;;
5981;SDS011;3018;48.730;9.336;2023-02-13T14:46:56;10.10;;;8.95;;
5981;SDS011;3018;48.730;9.336;2023-02-13T14:49:25;10.10;;;9.07;;
5981;SDS011;3018;48.730;9.336;2023-02-13T14:51:53;12.75;;;9.80;;
5981;SDS011;3018;48.730;9.336;2023-02-13T14:54:23;11.38;;;9.25;;
5981;SDS011;3018;48.730;9.336;2023-02-13T14:56:51;13.82;;;9.13;;
5981;SDS011;3018;48.730;9.336;2023-02-13T14:59:18;15.80;;;9.30;;
5981;SDS011;3018;48.730;9.336;2023-02-13T15:01:49;11.63;;;9.48;;
5981;SDS011;3018;48.730;9.336;2023-02-13T15:04:17;12.80;;;9.77;;
5981;SDS011;3018;48.730;9.336;2023-02-13T15:06:47;12.18;;;9.88;;
5981;SDS011;3018;48.730;9.336;2023-02-13T15:09:16;11.15;;;9.50;;
5981;SDS011;3018;48.730;9.336;2023-02-13T15:11:44;13.18;;;9.38;;
5981;SDS011;3018;48.730;9.336;2023-02-13T15:16:56;10.98;;;9.27;;
5981;SDS011;3018;48.730;9.336;2023-02-13T15:19:23;15.10;;;9.38;;
5981;SDS011;3018;48.730;9.336;2023-02-13T15:21:52;14.48;;;9.50;;
5981;SDS011;3018;48.730;9.336;2023-02-13T15:24:19;15.13;;;9.32;;
5981;SDS011;3018;48.730;9.336;2023-02-13T15:26:48;13.18;;;9.23;;